This is the latest recevied weather packets stored in our database for station/object OH2EGI-2. If no packets are shown the sender has not sent any weather packets the latest 10 day(s).
| Time | Temp. | Humidity | Pressure | Rain* | Wind** | Luminosity | Snow |
|---|---|---|---|---|---|---|---|
| 1777915899 | 10.56° C | 74% | 993.5 hPa | 0 mm | - | - | - |
| 1777915599 | 11.11° C | 73% | 993.4 hPa | 0 mm | - | - | - |
| 1777915299 | 11.11° C | 73% | 993.4 hPa | 0 mm | - | - | - |
| 1777914999 | 11.67° C | 73% | 993.4 hPa | 0 mm | - | - | - |
| 1777914699 | 11.67° C | 72% | 993.4 hPa | 0 mm | - | - | - |
| 1777914399 | 11.67° C | 72% | 993.3 hPa | 0 mm | - | - | - |
| 1777914099 | 11.67° C | 72% | 993.3 hPa | 0 mm | - | - | - |
| 1777913799 | 11.67° C | 71% | 993.2 hPa | 0 mm | - | - | - |
| 1777913499 | 11.67° C | 71% | 993.2 hPa | 0 mm | - | - | - |
| 1777913199 | 12.22° C | 70% | 993.2 hPa | 0 mm | - | - | - |
| 1777912899 | 12.22° C | 69% | 993.3 hPa | 0 mm | - | - | - |
| 1777912599 | 12.22° C | 69% | 993.2 hPa | 0 mm | - | - | - |
| 1777912299 | 12.22° C | 69% | 993.1 hPa | 0 mm | - | - | - |
| 1777911999 | 12.78° C | 67% | 993.1 hPa | 0 mm | - | - | - |
| 1777911699 | 12.78° C | 66% | 993.1 hPa | 0 mm | - | - | - |
| 1777911399 | 13.89° C | 63% | 993.1 hPa | 0 mm | - | - | - |
| 1777911099 | 15° C | 61% | 993.1 hPa | 0 mm | - | - | - |
| 1777910799 | 16.67° C | 59% | 993.1 hPa | 0 mm | - | - | - |
| 1777910499 | 17.22° C | 63% | 993.2 hPa | 0 mm | - | - | - |
| 1777910199 | 14.44° C | 67% | 992.9 hPa | 0 mm | - | - | - |
| 1777909899 | 13.33° C | 67% | 993 hPa | 0 mm | - | - | - |
| 1777909599 | 13.33° C | 66% | 993.1 hPa | 0 mm | - | - | - |
| 1777909299 | 13.89° C | 66% | 993 hPa | 0 mm | - | - | - |
| 1777908999 | 14.44° C | 67% | 993.1 hPa | 0 mm | - | - | - |
| 1777908699 | 13.33° C | 68% | 993.2 hPa | 0 mm | - | - | - |
* Rain latest hour (hover to see other rain measurements)
** Current wind speed in m/s (hover to see current wind gust speed)